createdAt,value
2018-07-13T00:00:53.926Z,32.61
2018-07-13T00:03:25.922Z,32.60
2018-07-13T00:05:58.524Z,32.62
2018-07-13T00:08:32.293Z,32.63
2018-07-13T00:11:05.126Z,32.61
2018-07-13T00:13:45.479Z,32.62
2018-07-13T00:16:18.172Z,32.63
2018-07-13T00:18:50.824Z,32.63
2018-07-13T00:21:23.854Z,32.61
2018-07-13T00:23:56.197Z,32.61
2018-07-13T00:26:28.550Z,32.59
2018-07-13T00:29:01.157Z,32.61
2018-07-13T00:31:33.643Z,32.58
2018-07-13T00:34:05.675Z,32.58
2018-07-13T00:36:38.738Z,32.57
2018-07-13T00:39:13.931Z,32.56
2018-07-13T00:41:46.427Z,32.58
2018-07-13T00:44:19.536Z,32.57
2018-07-13T00:46:51.968Z,32.56
2018-07-13T00:49:24.918Z,32.56
2018-07-13T00:51:57.505Z,32.55
2018-07-13T00:54:30.155Z,32.57
2018-07-13T00:57:03.210Z,32.56
2018-07-13T00:59:35.326Z,32.56
2018-07-13T01:02:07.735Z,32.54
2018-07-13T01:04:39.813Z,32.55
2018-07-13T01:07:12.804Z,32.53
2018-07-13T01:09:45.900Z,32.53
2018-07-13T01:12:18.176Z,32.52
2018-07-13T01:14:50.542Z,32.53
2018-07-13T01:17:27.048Z,32.51
2018-07-13T01:19:59.376Z,32.48
2018-07-13T01:22:32.031Z,32.46
2018-07-13T01:25:04.965Z,32.48
2018-07-13T01:27:37.300Z,32.46
2018-07-13T01:30:10.102Z,32.48
2018-07-13T01:32:42.484Z,32.48
2018-07-13T01:35:15.469Z,32.47
2018-07-13T01:37:47.990Z,32.49
2018-07-13T01:40:20.254Z,32.46
2018-07-13T01:42:53.142Z,32.45
2018-07-13T01:45:25.606Z,32.46
2018-07-13T01:47:58.181Z,32.46
2018-07-13T01:50:30.338Z,32.46
2018-07-13T01:53:03.022Z,32.44
2018-07-13T01:55:35.727Z,32.46
2018-07-13T01:58:08.801Z,32.45
2018-07-13T02:00:41.807Z,32.43
2018-07-13T02:03:13.939Z,32.42
2018-07-13T02:05:46.185Z,32.43
2018-07-13T02:08:18.533Z,32.40
2018-07-13T02:10:50.895Z,32.39
2018-07-13T02:13:23.827Z,32.38
2018-07-13T02:15:56.012Z,32.38
2018-07-13T02:18:28.641Z,32.36
2018-07-13T02:21:01.237Z,32.35
2018-07-13T02:23:33.677Z,32.35
2018-07-13T02:26:06.720Z,32.32
2018-07-13T02:28:38.745Z,32.30
2018-07-13T02:31:11.284Z,32.30
2018-07-13T02:33:43.821Z,32.29
2018-07-13T02:36:15.881Z,32.27
2018-07-13T02:38:48.272Z,32.29
2018-07-13T02:41:20.450Z,32.31
2018-07-13T02:43:52.968Z,32.26
2018-07-13T02:46:25.770Z,32.25
2018-07-13T02:48:58.265Z,32.28
2018-07-13T02:51:31.256Z,32.29
2018-07-13T02:54:03.356Z,32.29
2018-07-13T02:56:36.022Z,32.28
2018-07-13T02:59:08.111Z,32.26
2018-07-13T03:01:40.529Z,32.27
2018-07-13T03:04:13.644Z,32.28
2018-07-13T03:06:47.247Z,32.28
2018-07-13T03:09:19.646Z,32.29
2018-07-13T03:11:52.968Z,32.24
2018-07-13T03:14:26.135Z,32.29
2018-07-13T03:16:57.729Z,32.30
2018-07-13T03:19:30.130Z,32.29
2018-07-13T03:22:02.975Z,32.30
2018-07-13T03:24:35.365Z,32.28
2018-07-13T03:27:07.905Z,32.26
2018-07-13T03:29:40.852Z,32.27
2018-07-13T03:32:13.757Z,32.28
2018-07-13T03:34:46.049Z,32.32
2018-07-13T03:37:18.295Z,32.28
2018-07-13T03:39:49.968Z,32.29
2018-07-13T03:42:21.616Z,32.30
2018-07-13T03:44:54.167Z,32.31
2018-07-13T03:47:26.403Z,32.31
2018-07-13T03:49:59.807Z,32.34
2018-07-13T03:52:32.819Z,32.34
2018-07-13T03:55:06.096Z,32.32
2018-07-13T03:57:38.258Z,32.32
2018-07-13T04:00:11.034Z,32.33
2018-07-13T04:02:43.744Z,32.36
2018-07-13T04:05:17.019Z,32.35
2018-07-13T04:07:49.332Z,32.36
2018-07-13T04:10:22.462Z,32.35
2018-07-13T04:12:54.725Z,32.32
2018-07-13T04:15:27.299Z,32.33
2018-07-13T04:18:00.023Z,32.08
2018-07-13T04:20:32.400Z,31.96
2018-07-13T04:23:05.144Z,31.98
2018-07-13T04:25:38.273Z,31.97
2018-07-13T04:28:11.076Z,31.96
2018-07-13T04:30:45.417Z,31.97
2018-07-13T04:33:17.964Z,31.97
2018-07-13T04:35:50.801Z,32.13
2018-07-13T04:38:23.227Z,32.21
2018-07-13T04:40:55.931Z,32.20
2018-07-13T04:43:28.473Z,32.09
2018-07-13T04:46:36.137Z,32.10
2018-07-13T04:52:45.194Z,32.21
2018-07-13T04:55:54.894Z,32.26
2018-07-13T05:07:56.944Z,32.28
2018-07-13T05:13:55.852Z,32.28
2018-07-13T05:16:51.179Z,32.36
2018-07-13T05:19:51.865Z,32.39
2018-07-13T05:22:54.692Z,32.39
2018-07-13T05:25:57.013Z,32.31
2018-07-13T05:35:04.542Z,32.28
2018-07-13T05:38:00.927Z,32.52
2018-07-13T05:46:44.719Z,32.64
2018-07-13T05:49:28.359Z,32.69
2018-07-13T05:52:17.594Z,32.73
2018-07-13T05:55:11.299Z,32.70
2018-07-13T05:58:05.146Z,32.71
2018-07-13T06:00:58.882Z,32.73
2018-07-13T06:06:54.676Z,32.66
2018-07-13T06:12:48.531Z,32.48
2018-07-13T06:15:43.129Z,32.55
2018-07-13T06:18:35.085Z,32.63
2018-07-13T06:21:28.406Z,32.65
2018-07-13T06:24:25.976Z,32.66
2018-07-13T06:27:17.302Z,32.66
2018-07-13T06:30:11.225Z,32.68
2018-07-13T06:33:05.553Z,32.70
2018-07-13T06:35:56.457Z,32.69
2018-07-13T06:38:50.370Z,32.72
2018-07-13T06:44:37.247Z,32.80
2018-07-13T06:47:24.255Z,32.78
2018-07-13T06:50:10.223Z,32.79
2018-07-13T06:53:04.090Z,32.81
2018-07-13T06:55:57.719Z,32.82
2018-07-13T06:58:46.305Z,32.84
2018-07-13T07:04:44.159Z,32.88
2018-07-13T07:07:33.404Z,32.91
2018-07-13T07:10:16.565Z,32.92
2018-07-13T07:14:10.118Z,32.91
2018-07-13T07:16:57.300Z,33.00
2018-07-13T07:19:43.175Z,32.98
2018-07-13T07:22:30.113Z,32.98
2018-07-13T07:25:10.912Z,32.97
2018-07-13T07:27:53.748Z,33.02
2018-07-13T07:30:39.687Z,33.11
2018-07-13T07:33:28.015Z,33.19
2018-07-13T07:36:14.423Z,33.12
2018-07-13T07:39:09.706Z,33.16
2018-07-13T07:41:54.555Z,33.23
2018-07-13T07:44:37.507Z,33.22
2018-07-13T07:47:18.849Z,33.21
2018-07-13T07:49:59.260Z,33.22
2018-07-13T07:52:39.717Z,33.25
2018-07-13T07:55:24.182Z,33.28
2018-07-13T07:58:05.405Z,33.29
2018-07-13T08:00:48.843Z,33.33
2018-07-13T08:03:29.942Z,33.33
2018-07-13T08:06:14.325Z,33.35
2018-07-13T08:08:59.061Z,33.43
2018-07-13T08:11:46.759Z,33.46
2018-07-13T08:17:19.360Z,33.55
2018-07-13T08:20:07.290Z,33.46
2018-07-13T08:23:06.655Z,33.48
2018-07-13T08:25:57.915Z,33.47
2018-07-13T08:28:46.484Z,33.72
2018-07-13T08:31:34.265Z,33.54
2018-07-13T08:34:19.260Z,33.59
2018-07-13T08:37:07.777Z,33.75
2018-07-13T08:39:56.535Z,33.89
2018-07-13T08:42:42.652Z,33.97
2018-07-13T08:45:32.926Z,33.96
2018-07-13T08:48:17.885Z,33.83
2018-07-13T08:51:05.182Z,33.90
2018-07-13T08:53:52.922Z,33.84
2018-07-13T08:56:34.753Z,34.07
2018-07-13T08:59:20.103Z,34.05
2018-07-13T09:02:03.502Z,33.96
2018-07-13T09:04:50.645Z,33.97
2018-07-13T09:07:47.078Z,33.96
2018-07-13T09:16:38.506Z,34.02
2018-07-13T09:19:23.835Z,34.23
2018-07-13T09:22:06.282Z,34.27
2018-07-13T09:24:51.335Z,34.17
2018-07-13T09:27:36.845Z,34.02
2018-07-13T09:30:22.381Z,34.08
2018-07-13T09:33:10.833Z,34.11
2018-07-13T09:35:57.319Z,34.02
2018-07-13T09:38:46.256Z,33.96
2018-07-13T09:41:34.847Z,33.99
2018-07-13T09:47:32.343Z,33.85
2018-07-13T09:50:20.184Z,33.66
2018-07-13T09:53:07.516Z,33.48
2018-07-13T09:55:48.595Z,33.38
2018-07-13T09:58:37.911Z,33.29
2018-07-13T10:01:17.096Z,32.92
2018-07-13T10:03:55.859Z,32.78
2018-07-13T10:06:32.487Z,32.71
2018-07-13T10:09:10.092Z,32.73
2018-07-13T10:11:46.611Z,32.54
2018-07-13T10:14:21.177Z,32.57
2018-07-13T10:16:55.937Z,32.46
2018-07-13T10:19:31.660Z,32.39
2018-07-13T10:22:09.821Z,32.45
2018-07-13T10:24:44.504Z,32.47
2018-07-13T10:27:20.402Z,32.45
2018-07-13T10:29:57.214Z,32.34
2018-07-13T10:32:33.811Z,32.37
2018-07-13T10:35:11.604Z,32.45
2018-07-13T10:37:46.463Z,32.38
2018-07-13T10:40:18.873Z,32.41
2018-07-13T10:42:51.005Z,32.34
2018-07-13T10:45:24.992Z,32.27
2018-07-13T10:47:57.777Z,32.23
2018-07-13T10:50:32.313Z,32.38
2018-07-13T10:53:05.010Z,32.37
2018-07-13T10:55:37.818Z,32.33
2018-07-13T10:58:12.265Z,32.25
2018-07-13T11:00:48.415Z,31.50
2018-07-13T11:03:23.671Z,31.88
2018-07-13T11:05:57.040Z,31.53
2018-07-13T11:08:29.413Z,31.33
2018-07-13T11:11:02.373Z,31.63
2018-07-13T11:13:36.444Z,31.91
2018-07-13T11:16:09.973Z,32.12
2018-07-13T11:18:42.575Z,32.17
2018-07-13T11:21:14.771Z,32.17
2018-07-13T11:23:47.165Z,32.03
2018-07-13T11:26:20.223Z,32.18
2018-07-13T11:28:52.424Z,32.24
2018-07-13T11:31:25.406Z,32.26
2018-07-13T11:33:58.052Z,32.22
2018-07-13T11:36:30.345Z,32.36
2018-07-13T11:39:02.794Z,32.37
2018-07-13T11:41:35.393Z,32.43
2018-07-13T11:44:07.872Z,32.44
2018-07-13T11:46:39.993Z,32.44
2018-07-13T11:49:12.214Z,32.46
2018-07-13T11:51:44.801Z,32.48
2018-07-13T11:54:17.559Z,32.44
2018-07-13T11:56:50.249Z,32.46
2018-07-13T11:59:22.268Z,32.48
2018-07-13T12:01:55.112Z,32.48
2018-07-13T12:04:27.711Z,32.46
2018-07-13T12:07:00.014Z,32.51
2018-07-13T12:09:32.435Z,32.51
2018-07-13T12:12:04.950Z,32.55
2018-07-13T12:14:37.025Z,32.56
2018-07-13T12:17:10.069Z,32.54
2018-07-13T12:19:42.501Z,32.52
2018-07-13T12:22:14.978Z,32.54
2018-07-13T12:24:47.580Z,32.55
2018-07-13T12:27:20.399Z,32.52
2018-07-13T12:29:52.755Z,32.53
2018-07-13T12:32:25.735Z,32.52
2018-07-13T12:34:58.472Z,32.52
2018-07-13T12:37:31.124Z,32.49
2018-07-13T12:40:03.586Z,32.48
2018-07-13T12:42:40.894Z,32.50
2018-07-13T12:45:13.418Z,32.49
2018-07-13T12:47:46.412Z,32.52
2018-07-13T12:50:18.974Z,32.53
2018-07-13T12:52:52.619Z,32.57
2018-07-13T12:55:25.382Z,32.56
2018-07-13T12:57:58.185Z,32.57
2018-07-13T13:00:30.459Z,32.60
2018-07-13T13:03:02.147Z,32.55
2018-07-13T13:05:34.940Z,32.60
2018-07-13T13:08:07.159Z,32.61
2018-07-13T13:10:39.794Z,32.47
2018-07-13T13:13:14.315Z,32.56
2018-07-13T13:15:46.767Z,32.59
2018-07-13T13:18:19.786Z,32.58
2018-07-13T13:20:52.336Z,32.54
2018-07-13T13:23:25.119Z,32.51
2018-07-13T13:25:57.685Z,32.54
2018-07-13T13:28:30.549Z,32.57
2018-07-13T13:31:02.554Z,32.56
2018-07-13T13:33:40.163Z,32.56
2018-07-13T13:36:12.157Z,32.55
2018-07-13T13:38:45.405Z,32.55
2018-07-13T13:41:17.735Z,32.56
2018-07-13T13:43:50.875Z,32.52
2018-07-13T13:46:23.364Z,32.53
2018-07-13T13:48:56.200Z,32.51
2018-07-13T13:51:28.460Z,32.51
2018-07-13T13:54:00.681Z,32.54
2018-07-13T13:56:33.474Z,32.54
2018-07-13T13:59:06.493Z,32.58
2018-07-13T14:01:38.735Z,32.55
2018-07-13T14:04:11.852Z,32.54
2018-07-13T14:06:44.583Z,32.54
2018-07-13T14:09:17.555Z,32.49
2018-07-13T14:11:50.339Z,32.46
2018-07-13T14:14:23.319Z,32.46
2018-07-13T14:16:55.414Z,32.47
2018-07-13T14:19:27.795Z,32.46
2018-07-13T14:22:00.252Z,32.45
2018-07-13T14:24:32.607Z,32.38
2018-07-13T14:27:05.160Z,32.39
2018-07-13T14:29:37.507Z,32.43
2018-07-13T14:32:10.337Z,32.42
2018-07-13T14:34:43.510Z,32.42
2018-07-13T14:37:16.125Z,32.44
2018-07-13T14:39:48.688Z,32.39
2018-07-13T14:42:21.973Z,32.39
2018-07-13T14:44:54.280Z,32.32
2018-07-13T14:47:26.369Z,32.32
2018-07-13T14:49:58.370Z,32.34
2018-07-13T14:52:39.565Z,32.36
2018-07-13T14:55:11.885Z,32.37
2018-07-13T14:57:43.969Z,32.37
2018-07-13T15:00:16.608Z,32.28
2018-07-13T15:02:48.813Z,32.33
2018-07-13T15:05:21.751Z,32.34
2018-07-13T15:07:54.595Z,32.34
2018-07-13T15:10:27.702Z,32.34
2018-07-13T15:13:00.105Z,32.34
2018-07-13T15:15:36.980Z,32.31
2018-07-13T15:18:09.110Z,32.32
2018-07-13T15:20:42.886Z,32.31
2018-07-13T15:23:15.441Z,32.32
2018-07-13T15:25:48.188Z,32.31
2018-07-13T15:28:20.358Z,32.26
2018-07-13T15:30:53.219Z,32.30
2018-07-13T15:33:25.536Z,32.31
2018-07-13T15:35:57.963Z,32.25
2018-07-13T15:38:30.272Z,32.29
2018-07-13T15:41:03.407Z,32.31
2018-07-13T15:43:35.287Z,32.32
2018-07-13T15:46:17.412Z,32.38
2018-07-13T15:48:49.701Z,32.40
2018-07-13T15:51:22.827Z,32.43
2018-07-13T15:53:55.873Z,32.44
2018-07-13T15:56:28.948Z,32.46
2018-07-13T15:59:01.678Z,32.46
2018-07-13T16:01:34.953Z,32.46
2018-07-13T16:04:07.440Z,32.45
2018-07-13T16:06:40.781Z,32.46
2018-07-13T16:09:13.428Z,32.47
2018-07-13T16:11:45.667Z,32.46
2018-07-13T16:14:17.811Z,32.46
2018-07-13T16:16:50.842Z,32.47
2018-07-13T16:19:23.025Z,32.47
2018-07-13T16:21:56.320Z,32.47
2018-07-13T16:24:30.159Z,32.46
2018-07-13T16:27:02.916Z,32.46
2018-07-13T16:29:36.595Z,32.47
2018-07-13T16:32:09.133Z,32.48
2018-07-13T16:34:41.902Z,32.48
2018-07-13T16:37:14.390Z,32.50
2018-07-13T16:39:46.707Z,32.51
2018-07-13T16:42:19.568Z,32.50
2018-07-13T16:44:52.087Z,32.51
2018-07-13T16:47:25.176Z,32.50
2018-07-13T16:49:58.042Z,32.49
2018-07-13T16:52:30.898Z,32.49
2018-07-13T16:55:04.606Z,32.50
2018-07-13T16:57:37.580Z,32.49
2018-07-13T17:00:11.989Z,32.50
2018-07-13T17:02:45.021Z,32.50
2018-07-13T17:05:18.123Z,32.49
2018-07-13T17:07:51.579Z,32.49
2018-07-13T17:10:23.851Z,32.50
2018-07-13T17:12:56.399Z,32.50
2018-07-13T17:15:28.710Z,32.49
2018-07-13T17:18:01.047Z,32.33
2018-07-13T17:20:33.887Z,32.32
2018-07-13T17:23:06.390Z,32.33
2018-07-13T17:25:39.432Z,32.40
2018-07-13T17:28:12.179Z,32.45
2018-07-13T17:30:44.506Z,32.45
2018-07-13T17:33:17.739Z,32.45
2018-07-13T17:35:50.027Z,32.47
2018-07-13T17:38:22.379Z,32.36
2018-07-13T17:40:55.676Z,32.36
2018-07-13T17:43:28.180Z,32.40
2018-07-13T17:46:01.034Z,32.42
2018-07-13T17:48:33.378Z,32.39
2018-07-13T17:51:06.281Z,32.40
2018-07-13T17:53:39.104Z,32.39
2018-07-13T17:56:11.891Z,32.38
2018-07-13T17:58:44.448Z,32.36
2018-07-13T18:01:17.204Z,32.37
2018-07-13T18:06:26.647Z,32.38
2018-07-13T18:08:59.008Z,32.39
2018-07-13T18:11:31.222Z,32.40
2018-07-13T18:14:03.964Z,32.41
2018-07-13T18:16:36.311Z,32.40
2018-07-13T18:19:08.783Z,32.40
2018-07-13T18:21:41.365Z,32.41
2018-07-13T18:24:15.665Z,32.38
2018-07-13T18:26:53.636Z,32.39
2018-07-13T18:29:29.500Z,32.40
2018-07-13T18:32:02.153Z,32.40
2018-07-13T18:34:35.649Z,32.37
2018-07-13T18:37:09.785Z,32.38
2018-07-13T18:39:43.804Z,32.28
2018-07-13T18:42:17.318Z,32.30
2018-07-13T18:44:49.221Z,32.33
2018-07-13T18:47:21.628Z,32.34
2018-07-13T18:49:53.867Z,32.34
2018-07-13T18:52:26.840Z,32.35
2018-07-13T18:54:58.706Z,32.34
2018-07-13T18:57:30.914Z,32.36
2018-07-13T19:00:03.859Z,32.37
2018-07-13T19:02:35.867Z,32.36
2018-07-13T19:05:08.715Z,32.36
2018-07-13T19:07:42.870Z,32.36
2018-07-13T19:10:15.081Z,32.37
2018-07-13T19:12:47.392Z,32.36
2018-07-13T19:15:19.852Z,32.37
2018-07-13T19:17:52.338Z,32.36
2018-07-13T19:20:25.163Z,32.34
2018-07-13T19:22:58.017Z,32.35
2018-07-13T19:25:30.358Z,32.34
2018-07-13T19:28:02.498Z,32.35
2018-07-13T19:30:35.224Z,32.35
2018-07-13T19:33:08.111Z,32.34
2018-07-13T19:35:40.446Z,32.34
2018-07-13T19:38:13.219Z,32.34
2018-07-13T19:40:45.804Z,32.34
2018-07-13T19:43:17.748Z,32.32
2018-07-13T19:45:50.597Z,32.31
2018-07-13T19:48:23.598Z,32.33
2018-07-13T19:50:56.185Z,32.32
2018-07-13T19:53:28.817Z,32.32
2018-07-13T19:56:01.384Z,32.33
2018-07-13T19:58:33.789Z,32.33
2018-07-13T20:01:06.651Z,32.32
2018-07-13T20:03:38.756Z,32.31
2018-07-13T20:06:10.913Z,32.30
2018-07-13T20:08:43.808Z,32.31
2018-07-13T20:11:16.496Z,32.29
2018-07-13T20:13:48.849Z,32.30
2018-07-13T20:16:20.927Z,32.29
2018-07-13T20:18:53.467Z,32.28
2018-07-13T20:21:25.345Z,32.29
2018-07-13T20:23:57.666Z,32.30
2018-07-13T20:26:29.707Z,32.29
2018-07-13T20:29:01.998Z,32.28
2018-07-13T20:31:34.376Z,32.29
2018-07-13T20:34:06.973Z,32.29
2018-07-13T20:36:39.821Z,32.28
2018-07-13T20:39:12.577Z,32.29
2018-07-13T20:41:45.039Z,32.28
2018-07-13T20:44:17.563Z,32.26
2018-07-13T20:46:49.620Z,32.26
2018-07-13T20:49:21.803Z,32.25
2018-07-13T20:51:54.081Z,32.27
2018-07-13T20:54:26.458Z,32.24
2018-07-13T20:56:59.173Z,32.25
2018-07-13T20:59:31.692Z,32.24
2018-07-13T21:02:03.963Z,32.23
2018-07-13T21:04:36.789Z,32.23
2018-07-13T21:07:09.406Z,32.23
2018-07-13T21:09:42.586Z,32.24
2018-07-13T21:12:15.145Z,32.22
2018-07-13T21:14:48.059Z,32.24
2018-07-13T21:17:20.057Z,32.24
2018-07-13T21:19:53.091Z,32.25
2018-07-13T21:22:25.879Z,32.21
2018-07-13T21:24:58.315Z,32.20
2018-07-13T21:27:30.209Z,32.21
2018-07-13T21:30:02.872Z,32.22
2018-07-13T21:32:35.775Z,32.17
2018-07-13T21:35:08.181Z,32.18
2018-07-13T21:37:40.489Z,32.20
2018-07-13T21:40:13.251Z,32.20
2018-07-13T21:42:46.157Z,32.17
2018-07-13T21:45:18.366Z,32.19
2018-07-13T21:47:50.521Z,32.17
2018-07-13T21:50:23.582Z,32.15
2018-07-13T21:52:56.755Z,32.17
2018-07-13T21:55:29.153Z,32.15
2018-07-13T21:58:01.693Z,32.16
2018-07-13T22:00:34.743Z,32.16
2018-07-13T22:03:07.468Z,32.17
2018-07-13T22:05:40.333Z,32.16
2018-07-13T22:08:13.066Z,32.16
2018-07-13T22:10:45.325Z,32.14
2018-07-13T22:13:17.511Z,32.12
2018-07-13T22:15:50.579Z,32.14
2018-07-13T22:18:22.690Z,32.13
2018-07-13T22:20:55.842Z,32.10
2018-07-13T22:23:28.117Z,32.13
2018-07-13T22:26:00.514Z,32.13
2018-07-13T22:28:33.720Z,32.12
2018-07-13T22:31:06.183Z,32.10
2018-07-13T22:33:38.041Z,32.11
2018-07-13T22:36:10.242Z,32.11
2018-07-13T22:38:43.309Z,32.10
2018-07-13T22:41:15.557Z,32.06
2018-07-13T22:43:47.745Z,32.10
2018-07-13T22:46:20.983Z,32.10
2018-07-13T22:48:53.651Z,32.10
2018-07-13T22:51:26.504Z,32.11
2018-07-13T22:53:58.579Z,32.09
2018-07-13T22:56:31.471Z,32.09
2018-07-13T22:59:04.574Z,32.07
2018-07-13T23:01:36.890Z,32.05
2018-07-13T23:04:09.451Z,32.05
2018-07-13T23:06:42.106Z,32.05
2018-07-13T23:09:14.728Z,32.05
2018-07-13T23:11:47.396Z,32.04
2018-07-13T23:14:19.571Z,32.05
2018-07-13T23:16:52.125Z,32.06
2018-07-13T23:19:24.459Z,32.05
2018-07-13T23:21:58.075Z,32.03
2018-07-13T23:24:30.536Z,32.05
2018-07-13T23:27:03.549Z,32.02
2018-07-13T23:29:36.026Z,32.04
2018-07-13T23:32:08.852Z,32.02
2018-07-13T23:34:40.875Z,32.04
2018-07-13T23:37:13.127Z,32.02
2018-07-13T23:39:45.952Z,31.99
2018-07-13T23:42:18.806Z,31.99
2018-07-13T23:44:51.371Z,32.01
2018-07-13T23:47:23.513Z,32.00
2018-07-13T23:49:56.231Z,32.00
2018-07-13T23:52:29.000Z,31.98
2018-07-13T23:55:01.921Z,31.98
2018-07-13T23:57:34.133Z,31.97
